Time;durP1;ratioP1;P1;durP2;ratioP2;P2;SDS_P1;SDS_P2;PMS_P1;PMS_P2;Temp;Humidity;BMP_temperature;BMP_pressure;BME280_temperature;BME280_humidity;BME280_pressure;Samples;Min_cycle;Max_cycle;Signal;HPM_P1;HPM_P2
2022/07/28 00:01:05;;;;;;;25.23;22.77;;;;;;;14.71;97.07;97838.19;7614630;23;20243;-67
2022/07/28 00:04:07;;;;;;;14.27;12.93;;;;;;;14.68;96.62;97835.81;7614289;23;20284;-65
2022/07/28 00:07:09;;;;;;;11.30;10.20;;;;;;;14.69;96.51;97834.81;7588896;23;20217;-66
2022/07/28 00:10:11;;;;;;;9.00;8.20;;;;;;;14.65;96.18;97836.13;7614542;23;20204;-65
2022/07/28 00:13:13;;;;;;;7.23;6.63;;;;;;;14.62;95.81;97833.75;7614809;23;20215;-66
2022/07/28 00:16:15;;;;;;;8.10;6.63;;;;;;;14.60;95.67;97834.84;7615528;23;20240;-66
2022/07/28 00:19:19;;;;;;;7.20;6.03;;;;;;;14.61;95.55;97833.88;7516286;23;20447;-65
2022/07/28 00:22:20;;;;;;;5.57;5.13;;;;;;;14.56;95.67;97839.66;7577964;23;20220;-66
2022/07/28 00:25:23;;;;;;;6.00;5.50;;;;;;;14.52;95.23;97832.94;7578456;23;20255;-66
2022/07/28 00:28:25;;;;;;;6.60;6.00;;;;;;;14.50;95.17;97834.06;7580533;23;20724;-65
2022/07/28 00:31:27;;;;;;;6.43;5.83;;;;;;;14.49;95.36;97825.25;7575919;23;20684;-65
2022/07/28 00:34:29;;;;;;;6.47;5.87;;;;;;;14.46;95.05;97830.03;7579158;23;20681;-66
2022/07/28 00:37:31;;;;;;;6.20;5.70;;;;;;;14.45;94.91;97812.41;7579265;23;20263;-66
2022/07/28 00:43:54;;;;;;;6.23;5.33;;;;;;;14.40;95.06;97821.63;7578818;23;20666;-67
2022/07/28 00:46:56;;;;;;;10.30;9.27;;;;;;;14.39;94.90;97819.97;7578307;23;20240;-65
2022/07/28 00:49:58;;;;;;;6.67;6.17;;;;;;;14.35;94.89;97813.25;7579195;23;20213;-66
2022/07/28 00:53:01;;;;;;;6.40;5.87;;;;;;;14.35;94.83;97817.72;7579169;23;20217;-66
2022/07/28 00:56:03;;;;;;;6.20;5.60;;;;;;;14.36;94.49;97814.09;7581567;23;20222;-66
2022/07/28 00:59:07;;;;;;;5.70;5.07;;;;;;;14.36;94.61;97816.75;7581495;23;20248;-65
2022/07/28 01:02:10;;;;;;;5.70;5.20;;;;;;;14.31;94.75;97822.47;7581084;23;20287;-65
2022/07/28 01:05:14;;;;;;;6.70;6.00;;;;;;;14.28;94.57;97817.44;7586245;23;20518;-66
2022/07/28 01:08:37;;;;;;;6.07;5.57;;;;;;;14.29;94.73;97818.28;7581361;23;20904;-65
2022/07/28 01:12:09;;;;;;;7.13;5.60;;;;;;;14.31;94.86;97811.00;7581870;23;20589;-65
2022/07/28 01:15:50;;;;;;;6.47;5.87;;;;;;;14.31;94.94;97816.31;7579241;23;20658;-66
2022/07/28 01:19:09;;;;;;;5.70;5.13;;;;;;;14.32;94.73;97816.19;7504644;23;20607;-66
2022/07/28 01:22:18;;;;;;;6.93;5.03;;;;;;;14.29;95.04;97819.09;7504964;23;20271;-66
2022/07/28 01:25:22;;;;;;;7.50;5.70;;;;;;;14.27;94.68;97813.13;7505378;23;20242;-66
2022/07/28 01:28:58;;;;;;;9.00;5.87;;;;;;;14.28;94.82;97805.97;7503943;23;20241;-66
2022/07/28 01:32:05;;;;;;;7.27;6.20;;;;;;;14.27;94.62;97802.50;7505861;23;20586;-66
2022/07/28 01:35:18;;;;;;;7.07;6.33;;;;;;;14.21;94.61;97805.72;7504230;23;20901;-66
2022/07/28 01:38:23;;;;;;;18.50;16.70;;;;;;;14.21;94.80;97805.72;7504102;23;20219;-66
2022/07/28 01:41:28;;;;;;;12.73;11.43;;;;;;;14.17;94.79;97795.53;7505203;23;20221;-65
2022/07/28 01:44:33;;;;;;;9.53;8.53;;;;;;;14.12;95.24;97800.44;7503739;23;20289;-66
2022/07/28 01:47:36;;;;;;;10.80;9.70;;;;;;;14.12;94.96;97805.72;7512901;23;20218;-65
2022/07/28 01:50:40;;;;;;;7.77;7.17;;;;;;;14.09;95.04;97798.06;7582940;23;20221;-65
2022/07/28 01:53:45;;;;;;;8.77;7.87;;;;;;;14.07;94.96;97798.22;7579497;23;20217;-65
2022/07/28 01:56:48;;;;;;;10.90;9.27;;;;;;;14.03;94.97;97797.66;7579213;23;20548;-66
2022/07/28 01:59:52;;;;;;;11.13;9.37;;;;;;;14.04;94.79;97801.16;7580047;23;20267;-66
2022/07/28 02:02:56;;;;;;;9.07;8.23;;;;;;;14.10;95.03;97797.91;7580631;23;20291;-66
2022/07/28 02:06:01;;;;;;;11.33;8.80;;;;;;;14.09;95.26;97782.13;7581746;23;20213;-65
2022/07/28 02:09:05;;;;;;;8.40;7.60;;;;;;;14.06;94.80;97790.41;7579042;23;20186;-66
2022/07/28 02:12:09;;;;;;;9.00;8.20;;;;;;;14.09;94.91;97792.75;7580425;23;20196;-66
2022/07/28 02:15:13;;;;;;;10.43;7.50;;;;;;;14.07;94.94;97787.59;7579335;23;20614;-66
2022/07/28 02:18:15;;;;;;;10.20;8.63;;;;;;;14.08;94.82;97789.25;7587658;23;20288;-66
2022/07/28 02:21:20;;;;;;;7.03;6.33;;;;;;;14.05;95.21;97789.56;7616050;23;20180;-66
2022/07/28 02:24:27;;;;;;;7.27;6.47;;;;;;;14.04;95.09;97787.88;7614713;23;20217;-66
2022/07/28 02:27:29;;;;;;;7.50;6.03;;;;;;;14.03;94.91;97789.69;7617573;23;20212;-66
2022/07/28 02:30:36;;;;;;;8.30;6.90;;;;;;;14.03;95.17;97791.50;7615988;23;20209;-66
2022/07/28 02:33:40;;;;;;;5.60;5.10;;;;;;;13.95;94.96;97796.69;7590760;23;20232;-66
2022/07/28 02:37:02;;;;;;;5.87;5.27;;;;;;;13.92;94.96;97797.81;7621161;23;20239;-66
2022/07/28 02:40:11;;;;;;;7.50;5.17;;;;;;;13.93;95.07;97803.94;7615441;23;20209;-66
2022/07/28 02:43:16;;;;;;;5.77;5.27;;;;;;;13.94;95.29;97806.47;7615007;23;20556;-66
2022/07/28 02:46:23;;;;;;;6.83;4.80;;;;;;;13.88;94.98;97804.34;7588968;23;20226;-66
2022/07/28 02:49:34;;;;;;;5.47;4.97;;;;;;;13.87;95.33;97801.88;7617597;23;20695;-66
2022/07/28 02:52:40;;;;;;;5.10;4.60;;;;;;;13.86;95.15;97801.03;7615852;23;20219;-66
2022/07/28 02:55:46;;;;;;;4.73;4.33;;;;;;;13.85;95.10;97804.66;7613775;23;20255;-66
2022/07/28 02:58:50;;;;;;;6.17;4.50;;;;;;;13.85;95.52;97801.16;7615492;23;20212;-66
2022/07/28 03:01:53;;;;;;;5.50;4.57;;;;;;;13.86;95.35;97801.03;7616931;23;20552;-66
2022/07/28 03:05:01;;;;;;;5.93;4.93;;;;;;;13.82;95.35;97798.78;7614754;23;20294;-66
2022/07/28 03:08:09;;;;;;;6.07;5.07;;;;;;;13.77;94.94;97807.19;7616213;23;20624;-66
2022/07/28 03:11:13;;;;;;;6.90;5.00;;;;;;;13.71;95.26;97805.06;7614976;23;20212;-66
2022/07/28 03:14:15;;;;;;;6.13;5.20;;;;;;;13.68;95.85;97805.34;7614252;23;20221;-65
2022/07/28 03:17:18;;;;;;;5.60;4.30;;;;;;;13.68;96.10;97797.38;7616555;23;20694;-66
2022/07/28 03:20:20;;;;;;;5.30;4.80;;;;;;;13.70;96.31;97803.38;7589090;23;20212;-66
2022/07/28 03:23:29;;;;;;;5.33;4.17;;;;;;;13.70;96.10;97810.50;7614865;23;20208;-66
2022/07/28 03:26:46;;;;;;;4.13;3.83;;;;;;;13.71;96.27;97817.50;7618245;23;20217;-66
2022/07/28 03:29:54;;;;;;;5.93;4.57;;;;;;;13.72;95.80;97816.50;7615164;23;20216;-65
2022/07/28 03:33:02;;;;;;;5.17;4.33;;;;;;;13.70;96.08;97821.94;7613825;23;20306;-66
2022/07/28 03:36:08;;;;;;;5.23;4.60;;;;;;;13.71;95.91;97823.63;7614361;23;20187;-66
2022/07/28 03:39:11;;;;;;;5.67;4.17;;;;;;;13.75;95.66;97833.00;7616650;23;20640;-66
2022/07/28 03:42:19;;;;;;;5.07;4.57;;;;;;;13.76;95.39;97829.38;7615211;23;20516;-65
2022/07/28 03:45:22;;;;;;;5.17;4.37;;;;;;;13.76;94.93;97832.03;7614433;23;20677;-66
2022/07/28 03:48:31;;;;;;;5.27;4.57;;;;;;;13.79;95.08;97842.34;7615339;23;20313;-66
2022/07/28 03:51:33;;;;;;;5.33;4.27;;;;;;;13.85;94.83;97835.66;7614051;23;20667;-66
2022/07/28 03:54:36;;;;;;;4.50;4.20;;;;;;;13.87;94.96;97839.00;7613874;23;20210;-66
2022/07/28 03:57:38;;;;;;;4.77;4.37;;;;;;;13.89;94.68;97848.47;7613994;23;20255;-66
2022/07/28 04:00:40;;;;;;;4.40;4.00;;;;;;;13.95;94.95;97855.06;7616754;23;20312;-66
2022/07/28 04:03:42;;;;;;;5.63;4.67;;;;;;;13.95;94.84;97847.94;7614855;23;20204;-66
2022/07/28 04:06:45;;;;;;;4.50;4.20;;;;;;;13.94;94.61;97862.19;7614477;23;20216;-65
2022/07/28 04:09:47;;;;;;;4.90;4.40;;;;;;;13.93;94.57;97865.81;7614156;23;20657;-66
2022/07/28 04:12:55;;;;;;;5.53;4.43;;;;;;;13.97;94.41;97871.69;7613329;23;20212;-66
2022/07/28 04:15:59;;;;;;;8.73;4.00;;;;;;;14.02;94.39;97872.94;7623342;23;20205;-66
2022/07/28 04:19:01;;;;;;;5.10;4.00;;;;;;;14.08;94.17;97884.78;7618248;23;20219;-66
2022/07/28 04:22:03;;;;;;;4.83;4.33;;;;;;;14.13;94.13;97887.88;7615676;23;20672;-66
2022/07/28 04:25:06;;;;;;;7.17;5.20;;;;;;;14.19;93.86;97889.97;7616112;23;20691;-66
2022/07/28 04:28:08;;;;;;;5.07;4.50;;;;;;;14.24;93.92;97889.56;7613779;23;20212;-66
2022/07/28 04:31:10;;;;;;;4.77;4.37;;;;;;;14.31;93.55;97882.69;7613437;23;20266;-66
2022/07/28 04:34:13;;;;;;;4.73;4.33;;;;;;;14.31;93.65;97885.34;7614812;23;20216;-66
2022/07/28 04:37:17;;;;;;;5.50;4.27;;;;;;;14.35;93.63;97879.63;7612828;23;20220;-67
2022/07/28 04:40:19;;;;;;;6.83;4.23;;;;;;;14.40;93.47;97879.22;7614361;23;20215;-66
2022/07/28 04:43:21;;;;;;;4.50;4.07;;;;;;;14.38;93.42;97881.97;7613795;23;20208;-66
2022/07/28 04:46:24;;;;;;;3.80;3.50;;;;;;;14.37;93.51;97871.53;7587878;23;20211;-66
2022/07/28 04:49:26;;;;;;;4.43;3.77;;;;;;;14.33;93.52;97883.38;7614544;23;20212;-67
2022/07/28 04:52:29;;;;;;;4.50;4.10;;;;;;;14.38;94.08;97876.66;7614341;23;20208;-67
2022/07/28 04:55:31;;;;;;;6.13;4.50;;;;;;;14.42;93.38;97887.88;7614307;23;20228;-67
2022/07/28 04:58:33;;;;;;;5.80;3.57;;;;;;;14.45;93.65;97884.13;7588285;23;20548;-67
2022/07/28 05:01:56;;;;;;;4.90;3.37;;;;;;;14.38;93.52;97887.28;7614398;23;20320;-67
2022/07/28 05:04:58;;;;;;;6.23;3.97;;;;;;;14.32;93.16;97887.03;7537050;23;20214;-66
2022/07/28 05:08:00;;;;;;;6.20;3.60;;;;;;;14.27;93.68;97886.63;7538195;23;20292;-66
2022/07/28 05:11:03;;;;;;;4.83;3.73;;;;;;;14.23;93.73;97894.03;7537840;23;20243;-66
2022/07/28 05:14:05;;;;;;;4.20;3.80;;;;;;;14.24;93.85;97898.34;7537082;23;20221;-67
2022/07/28 05:17:13;;;;;;;4.90;3.53;;;;;;;14.31;93.50;97902.13;7538409;23;20562;-66
2022/07/28 05:20:16;;;;;;;6.47;3.63;;;;;;;14.32;93.49;97895.81;7514216;23;20225;-67
2022/07/28 05:23:18;;;;;;;7.93;3.57;;;;;;;14.38;93.79;97897.06;7537891;23;20225;-66
2022/07/28 05:26:20;;;;;;;4.70;3.63;;;;;;;14.44;93.61;97895.72;7514432;23;20229;-66
2022/07/28 05:29:23;;;;;;;4.03;3.63;;;;;;;14.48;93.61;97899.75;7514174;23;20724;-66
2022/07/28 05:32:25;;;;;;;3.70;3.30;;;;;;;14.50;93.24;97895.13;7537673;23;20217;-66
2022/07/28 05:35:27;;;;;;;5.57;3.17;;;;;;;14.53;93.34;97897.50;7538557;23;20210;-66
2022/07/28 05:38:30;;;;;;;4.30;3.27;;;;;;;14.59;93.20;97900.44;7539835;23;20246;-66
2022/07/28 05:41:32;;;;;;;4.70;3.60;;;;;;;14.67;93.06;97900.53;7561585;23;20673;-66
2022/07/28 05:44:34;;;;;;;4.70;3.50;;;;;;;14.76;92.68;97899.72;7615122;23;20269;-66
2022/07/28 05:47:41;;;;;;;4.77;3.57;;;;;;;14.87;92.40;97905.84;7616186;23;20271;-66
2022/07/28 05:50:44;;;;;;;3.93;3.23;;;;;;;14.90;92.19;97902.88;7590023;23;20215;-66
2022/07/28 05:53:46;;;;;;;4.23;3.23;;;;;;;14.94;91.98;97901.59;7589768;23;20227;-66
2022/07/28 05:56:48;;;;;;;5.00;3.40;;;;;;;15.02;91.86;97901.72;7590018;23;20216;-66
2022/07/28 05:59:51;;;;;;;3.13;2.47;;;;;;;15.10;91.61;97899.16;7624273;23;20650;-66
2022/07/28 06:02:53;;;;;;;4.70;3.50;;;;;;;15.17;91.35;97907.41;7621357;23;20212;-66
2022/07/28 06:05:55;;;;;;;5.07;3.17;;;;;;;15.25;91.05;97908.34;7622704;23;20217;-67
2022/07/28 06:09:17;;;;;;;4.73;3.30;;;;;;;15.32;90.91;97900.59;7616731;23;20301;-65
2022/07/28 06:12:19;;;;;;;3.57;3.17;;;;;;;15.40;90.60;97898.88;7590059;23;20187;-66
2022/07/28 06:15:24;;;;;;;5.13;3.03;;;;;;;15.51;90.14;97898.69;7589600;23;20328;-66
2022/07/28 06:18:26;;;;;;;3.77;3.27;;;;;;;15.55;89.91;97896.63;7615587;23;20665;-66
2022/07/28 06:21:28;;;;;;;3.87;2.77;;;;;;;15.64;89.73;97892.22;7616909;23;20208;-66
2022/07/28 06:24:31;;;;;;;3.10;2.90;;;;;;;15.74;89.32;97895.66;7615373;23;20668;-66
2022/07/28 06:27:33;;;;;;;4.33;3.20;;;;;;;15.86;88.96;97894.44;7614232;23;20529;-66
2022/07/28 06:30:35;;;;;;;3.03;2.73;;;;;;;16.00;88.53;97890.41;7614947;23;20703;-66
2022/07/28 06:33:37;;;;;;;3.30;3.00;;;;;;;16.14;87.62;97884.56;7614054;23;20213;-66
2022/07/28 06:36:39;;;;;;;6.03;3.93;;;;;;;16.20;87.33;97887.44;7615098;23;20220;-66
2022/07/28 06:39:41;;;;;;;3.50;2.83;;;;;;;16.36;87.02;97889.44;7616581;23;20214;-66
2022/07/28 06:42:45;;;;;;;4.17;2.90;;;;;;;16.55;86.12;97885.75;7615447;23;20547;-66
2022/07/28 06:45:47;;;;;;;5.17;2.90;;;;;;;16.78;85.11;97881.56;7588205;23;20212;-66
2022/07/28 06:48:49;;;;;;;4.63;3.00;;;;;;;17.09;83.74;97879.25;7614445;23;20545;-66
2022/07/28 06:51:51;;;;;;;3.90;2.77;;;;;;;17.38;82.53;97889.56;7615521;23;20631;-66
2022/07/28 06:54:53;;;;;;;3.43;2.90;;;;;;;17.66;81.71;97888.38;7614835;23;20215;-63
2022/07/28 06:57:59;;;;;;;3.07;2.53;;;;;;;18.01;80.32;97894.44;7615936;23;20212;-65
2022/07/28 07:01:06;;;;;;;5.30;2.60;;;;;;;18.34;78.56;97884.63;7589056;23;20546;-65
2022/07/28 07:04:08;;;;;;;2.97;2.70;;;;;;;18.65;77.43;97884.81;7613974;23;20282;-66
2022/07/28 07:07:11;;;;;;;4.10;2.40;;;;;;;18.95;76.42;97884.09;7615477;23;20216;-65
2022/07/28 07:10:18;;;;;;;2.60;2.40;;;;;;;19.22;75.47;97879.34;7615796;23;20236;-66
2022/07/28 07:13:20;;;;;;;5.83;2.63;;;;;;;19.50;73.89;97875.25;7614153;23;20294;-66
2022/07/28 07:16:22;;;;;;;3.07;2.77;;;;;;;19.72;73.23;97877.13;7615868;23;20680;-65
2022/07/28 07:19:24;;;;;;;3.20;2.67;;;;;;;19.97;72.30;97876.97;7614486;23;20220;-67
2022/07/28 07:22:26;;;;;;;3.07;2.37;;;;;;;20.25;70.91;97873.63;7615033;23;20691;-65
2022/07/28 07:25:28;;;;;;;4.60;2.70;;;;;;;20.54;70.04;97874.75;7614032;23;20543;-65
2022/07/28 07:28:30;;;;;;;4.43;3.23;;;;;;;20.82;67.38;97877.66;7613761;23;20232;-66
2022/07/28 07:31:34;;;;;;;5.97;2.73;;;;;;;21.13;66.38;97870.28;7616598;23;20208;-65
2022/07/28 07:34:38;;;;;;;4.10;3.10;;;;;;;21.48;65.62;97881.31;7588671;23;20668;-66
2022/07/28 07:37:40;;;;;;;3.33;3.00;;;;;;;21.87;64.15;97872.91;7614637;23;20219;-65
2022/07/28 07:40:42;;;;;;;5.53;2.80;;;;;;;22.36;61.70;97871.16;7613999;23;20684;-66
2022/07/28 07:43:46;;;;;;;4.17;2.83;;;;;;;22.74;60.42;97866.34;7614869;23;20236;-67
2022/07/28 07:46:48;;;;;;;6.43;2.73;;;;;;;23.00;61.01;97862.19;7622543;23;20371;-66
2022/07/28 07:49:51;;;;;;;2.80;2.60;;;;;;;22.93;60.34;97861.31;7617590;23;20212;-66
2022/07/28 07:52:53;;;;;;;3.57;2.70;;;;;;;22.72;60.09;97865.69;7588771;23;20217;-66
2022/07/28 07:55:56;;;;;;;3.20;2.70;;;;;;;22.74;61.73;97866.34;7613849;23;20208;-67
2022/07/28 07:58:58;;;;;;;3.70;3.03;;;;;;;22.89;61.33;97860.88;7614500;23;20691;-67
2022/07/28 08:02:00;;;;;;;3.93;2.67;;;;;;;23.03;60.48;97861.81;7614213;23;20209;-67
2022/07/28 08:05:03;;;;;;;3.23;2.80;;;;;;;23.07;57.94;97868.44;7613778;23;20264;-67
2022/07/28 08:08:05;;;;;;;4.17;3.10;;;;;;;23.32;58.57;97856.19;7588349;23;20576;-66
2022/07/28 08:11:09;;;;;;;4.43;3.03;;;;;;;23.39;59.95;97857.03;7613648;23;20208;-66
2022/07/28 08:14:11;;;;;;;3.13;2.87;;;;;;;23.51;60.30;97858.16;7613048;23;20208;-66
2022/07/28 08:17:14;;;;;;;3.77;2.70;;;;;;;23.24;60.72;97850.97;7612743;23;20211;-67
2022/07/28 08:20:16;;;;;;;3.47;2.70;;;;;;;23.26;61.26;97848.06;7612718;23;20248;-68
2022/07/28 08:23:18;;;;;;;2.87;2.67;;;;;;;23.75;59.89;97845.19;7613503;23;20220;-67
2022/07/28 08:26:28;;;;;;;3.70;2.83;;;;;;;23.91;58.62;97839.44;7613765;23;20208;-66
2022/07/28 08:29:30;;;;;;;3.17;2.87;;;;;;;23.64;57.20;97837.69;7588334;23;20223;-66
2022/07/28 08:32:33;;;;;;;3.03;2.60;;;;;;;23.66;58.15;97838.34;7613943;23;20218;-66
2022/07/28 08:35:35;;;;;;;3.20;2.90;;;;;;;23.79;58.39;97841.88;7613603;23;20709;-66
2022/07/28 08:38:37;;;;;;;5.60;3.00;;;;;;;24.08;57.63;97827.22;7587048;23;20236;-66
2022/07/28 08:42:14;;;;;;;3.10;2.80;;;;;;;25.03;55.62;97822.50;7614492;23;20212;-66
2022/07/28 08:45:19;;;;;;;4.10;3.00;;;;;;;25.30;54.03;97829.47;7613890;23;20751;-66
2022/07/28 08:48:22;;;;;;;5.40;2.80;;;;;;;25.12;51.46;97818.53;7622246;23;20657;-66
2022/07/28 08:51:27;;;;;;;2.97;2.70;;;;;;;25.05;51.13;97825.81;7615873;23;20244;-67
2022/07/28 08:54:29;;;;;;;2.85;2.65;;;;;;;25.58;51.90;97810.25;7613764;23;20205;-69
2022/07/28 08:57:35;;;;;;;2.70;2.50;;;;;;;26.09;51.23;97819.13;7614665;23;20204;-71
2022/07/28 09:00:37;;;;;;;6.32;2.58;;;;;;;25.90;49.42;97817.38;7588925;23;20209;-66
2022/07/28 09:03:40;;;;;;;3.75;2.55;;;;;;;25.85;49.39;97813.69;7614107;23;20564;-67
2022/07/28 09:06:43;;;;;;;2.88;2.60;;;;;;;26.31;49.22;97819.66;7614059;23;20212;-67
2022/07/28 09:09:49;;;;;;;4.05;3.22;;;;;;;26.17;47.35;97815.34;7613055;23;20219;-68
2022/07/28 09:12:57;;;;;;;4.30;2.70;;;;;;;26.51;46.65;97813.25;7614910;23;20213;-67
2022/07/28 09:16:00;;;;;;;3.65;2.92;;;;;;;26.29;45.18;97813.63;7615960;23;20863;-67
2022/07/28 09:19:02;;;;;;;3.28;2.72;;;;;;;26.58;46.57;97820.25;7616973;23;20668;-67
2022/07/28 09:22:05;;;;;;;5.65;2.67;;;;;;;27.04;45.35;97819.03;7616469;23;20220;-66
2022/07/28 09:25:17;;;;;;;5.85;2.95;;;;;;;26.47;43.70;97826.38;7614984;23;20594;-67
2022/07/28 09:28:19;;;;;;;3.83;2.80;;;;;;;26.59;44.33;97818.38;7591733;23;20244;-68
2022/07/28 09:31:24;;;;;;;3.50;2.67;;;;;;;26.69;42.85;97807.88;7590528;23;20576;-68
2022/07/28 09:34:26;;;;;;;5.57;2.47;;;;;;;27.42;42.17;97810.69;7616286;23;20219;-68
2022/07/28 09:37:29;;;;;;;2.78;2.33;;;;;;;27.55;40.81;97802.44;7617566;23;20215;-68
2022/07/28 09:40:31;;;;;;;3.92;2.20;;;;;;;28.26;41.40;97794.31;7616278;23;20209;-68
2022/07/28 09:43:38;;;;;;;2.38;2.28;;;;;;;28.55;40.98;97797.22;7616354;23;20212;-70
2022/07/28 09:46:40;;;;;;;4.72;2.67;;;;;;;28.04;37.96;97800.50;7616723;23;20728;-67
2022/07/28 09:49:43;;;;;;;3.13;2.33;;;;;;;27.83;39.45;97794.53;7616200;23;20550;-71
2022/07/28 09:52:45;;;;;;;3.53;2.35;;;;;;;28.60;39.00;97800.03;7590062;23;20724;-69
2022/07/28 09:55:59;;;;;;;2.97;2.50;;;;;;;28.98;38.67;97794.16;7615457;23;20286;-68
2022/07/28 09:59:04;;;;;;;2.90;2.35;;;;;;;28.52;40.21;97795.78;7590922;23;20224;-68
2022/07/28 10:02:09;;;;;;;5.82;3.20;;;;;;;28.03;40.74;97802.38;7588782;23;20212;-68
2022/07/28 10:05:12;;;;;;;3.92;2.50;;;;;;;28.51;40.74;97802.28;7616013;23;20303;-69
2022/07/28 10:08:14;;;;;;;4.50;2.42;;;;;;;28.45;40.66;97797.75;7590101;23;20224;-67
2022/07/28 10:11:20;;;;;;;5.32;2.45;;;;;;;28.17;40.46;97793.00;7615414;23;20669;-71
2022/07/28 10:14:31;;;;;;;4.85;2.70;;;;;;;29.08;38.72;97796.28;7616194;23;20212;-70
2022/07/28 10:17:33;;;;;;;2.55;2.30;;;;;;;29.68;37.30;97799.47;7615538;23;20213;-68
2022/07/28 10:20:36;;;;;;;3.15;2.47;;;;;;;29.83;37.67;97788.06;7578007;23;20213;-69
2022/07/28 10:23:38;;;;;;;2.92;2.42;;;;;;;30.27;38.61;97792.69;7579135;23;20578;-69
2022/07/28 10:26:44;;;;;;;5.53;2.78;;;;;;;30.90;35.80;97785.28;7579111;23;20244;-69
2022/07/28 10:29:54;;;;;;;3.47;2.22;;;;;;;31.51;35.97;97778.78;7580221;23;20225;-69
2022/07/28 10:32:58;;;;;;;3.70;2.78;;;;;;;31.75;33.90;97777.44;7579332;23;20213;-69
2022/07/28 10:36:01;;;;;;;4.68;3.10;;;;;;;31.60;34.25;97765.50;7578678;23;20204;-69
2022/07/28 10:39:11;;;;;;;2.55;2.35;;;;;;;31.14;34.46;97771.22;7578332;23;20661;-69
2022/07/28 10:42:14;;;;;;;4.85;2.85;;;;;;;30.16;35.41;97773.69;7578276;23;20185;-69
2022/07/28 10:45:16;;;;;;;4.70;3.47;;;;;;;28.53;37.24;97772.16;7578991;23;20177;-68
2022/07/28 10:48:20;;;;;;;4.45;2.60;;;;;;;28.43;38.66;97770.03;7580173;23;20205;-69
2022/07/28 10:51:26;;;;;;;3.65;2.78;;;;;;;29.71;37.21;97764.44;7586617;23;20205;-68
2022/07/28 10:54:35;;;;;;;4.82;3.08;;;;;;;30.48;33.82;97757.63;7577191;23;20668;-69
2022/07/28 10:58:02;;;;;;;5.35;3.10;;;;;;;30.58;33.99;97757.81;7579226;23;20213;-70
2022/07/28 11:01:52;;;;;;;3.92;3.33;;;;;;;30.90;34.90;97747.13;7578826;23;20233;-68
2022/07/28 11:04:56;;;;;;;4.88;3.30;;;;;;;31.55;32.89;97739.78;7610034;23;20244;-69
2022/07/28 11:08:06;;;;;;;4.47;3.22;;;;;;;31.50;32.30;97738.91;7611179;23;20224;-69
2022/07/28 11:11:08;;;;;;;3.15;2.90;;;;;;;31.75;33.67;97743.84;7609900;23;20688;-69
2022/07/28 11:14:23;;;;;;;5.05;3.10;;;;;;;31.30;30.44;97735.97;7611391;23;20275;-70
2022/07/28 11:17:26;;;;;;;4.65;3.22;;;;;;;31.00;32.32;97739.91;7610737;23;20248;-69
2022/07/28 11:20:52;;;;;;;5.30;2.75;;;;;;;31.06;31.95;97743.50;7610685;23;20291;-69
2022/07/28 11:23:59;;;;;;;5.35;3.00;;;;;;;30.07;32.31;97738.72;7587660;23;20692;-68
2022/07/28 11:27:01;;;;;;;3.10;2.78;;;;;;;30.87;31.96;97720.34;7610002;23;20189;-67
2022/07/28 11:30:09;;;;;;;5.35;3.22;;;;;;;30.93;31.65;97730.28;7610247;23;20249;-70
2022/07/28 11:33:11;;;;;;;3.25;2.95;;;;;;;30.87;31.31;97728.53;7611119;23;20530;-69
2022/07/28 11:36:13;;;;;;;4.30;2.95;;;;;;;31.39;30.71;97718.88;7585302;23;20192;-68
2022/07/28 11:39:41;;;;;;;3.65;2.92;;;;;;;31.42;31.64;97723.84;7610239;23;20581;-67
2022/07/28 11:42:45;;;;;;;4.90;2.95;;;;;;;32.33;30.40;97721.22;7576838;23;20267;-66
2022/07/28 11:46:05;;;;;;;3.90;2.65;;;;;;;32.51;28.27;97730.91;7577149;23;20511;-66
2022/07/28 11:49:15;;;;;;;4.65;2.45;;;;;;;32.48;30.46;97718.59;7579096;23;20275;-67
2022/07/28 11:52:19;;;;;;;3.42;2.65;;;;;;;32.55;30.72;97712.88;7577850;23;20248;-65
2022/07/28 11:55:22;;;;;;;4.25;2.38;;;;;;;32.28;31.75;97715.72;7578559;23;20540;-68
2022/07/28 11:58:44;;;;;;;4.63;2.92;;;;;;;32.40;29.55;97704.59;7576976;23;20224;-66
2022/07/28 12:01:53;;;;;;;4.35;2.67;;;;;;;32.32;30.45;97713.28;7578324;23;20213;-66
2022/07/28 12:04:58;;;;;;;4.05;3.08;;;;;;;31.28;30.59;97706.19;7578642;23;20299;-66
2022/07/28 12:08:01;;;;;;;3.47;2.33;;;;;;;31.29;32.11;97696.13;7578326;23;20681;-66
2022/07/28 12:11:04;;;;;;;3.00;2.60;;;;;;;31.66;30.48;97702.56;7576918;23;20212;-66
2022/07/28 12:14:11;;;;;;;4.22;2.67;;;;;;;31.80;30.03;97698.34;7584709;23;20220;-67
2022/07/28 12:17:14;;;;;;;4.50;2.80;;;;;;;31.83;30.05;97700.56;7578080;23;20748;-67
2022/07/28 12:20:17;;;;;;;3.88;2.17;;;;;;;32.19;29.79;97689.97;7610454;23;20295;-66
2022/07/28 12:23:30;;;;;;;2.60;2.40;;;;;;;31.68;31.61;97684.03;7614902;23;20213;-67
2022/07/28 12:26:46;;;;;;;4.00;2.80;;;;;;;32.17;30.89;97684.75;7615119;23;20208;-66
2022/07/28 12:30:00;;;;;;;4.03;2.63;;;;;;;32.36;29.19;97687.91;7615221;23;20637;-67
2022/07/28 12:33:19;;;;;;;2.72;2.53;;;;;;;31.74;30.56;97677.53;7589200;23;20211;-66
2022/07/28 12:36:23;;;;;;;3.08;2.25;;;;;;;32.35;30.31;97688.16;7613069;23;20230;-66
2022/07/28 12:39:25;;;;;;;2.28;2.08;;;;;;;32.82;28.64;97683.59;7612954;23;20212;-69
2022/07/28 12:42:31;;;;;;;3.58;2.42;;;;;;;32.94;28.16;97678.69;7614815;23;20215;-68
2022/07/28 12:45:43;;;;;;;2.72;2.28;;;;;;;33.27;28.74;97666.56;7587568;23;20204;-67
2022/07/28 12:48:47;;;;;;;3.40;2.30;;;;;;;33.75;27.92;97674.63;7618251;23;20267;-67
2022/07/28 12:51:49;;;;;;;3.97;2.60;;;;;;;34.19;27.05;97666.69;7616144;23;20233;-67
2022/07/28 12:54:52;;;;;;;4.88;1.92;;;;;;;33.98;26.78;97663.13;7618320;23;20224;-67
2022/07/28 12:57:58;;;;;;;3.03;2.45;;;;;;;33.64;26.65;97660.09;7616202;23;20668;-68
2022/07/28 13:01:00;;;;;;;2.13;2.00;;;;;;;34.27;27.30;97653.28;7614469;23;20212;-67
2022/07/28 13:04:02;;;;;;;2.58;2.13;;;;;;;34.52;25.21;97643.38;7616200;23;20212;-68
2022/07/28 13:07:11;;;;;;;2.97;2.08;;;;;;;33.47;26.33;97635.69;7615931;23;20218;-68
2022/07/28 13:10:14;;;;;;;2.30;2.10;;;;;;;33.14;27.26;97634.19;7591106;23;20597;-68
2022/07/28 13:13:18;;;;;;;5.72;2.00;;;;;;;33.21;27.09;97637.50;7615606;23;20516;-69
2022/07/28 13:16:23;;;;;;;3.00;1.92;;;;;;;32.75;27.40;97650.16;7616872;23;20208;-68
2022/07/28 13:19:25;;;;;;;2.75;1.70;;;;;;;32.30;27.89;97630.75;7616498;23;20228;-67
2022/07/28 13:22:29;;;;;;;1.92;1.73;;;;;;;33.03;27.08;97627.06;7590269;23;20668;-67
2022/07/28 13:25:33;;;;;;;3.13;2.15;;;;;;;33.76;26.71;97625.06;7617452;23;20208;-67
2022/07/28 13:28:35;;;;;;;2.25;2.03;;;;;;;33.00;26.73;97627.59;7616199;23;20212;-69
2022/07/28 13:31:37;;;;;;;2.50;2.30;;;;;;;32.74;27.50;97618.47;7616453;23;20219;-67
2022/07/28 13:34:41;;;;;;;3.63;2.20;;;;;;;33.11;27.33;97626.53;7616431;23;20215;-68
2022/07/28 13:37:43;;;;;;;2.30;2.10;;;;;;;33.86;27.75;97610.53;7590903;23;20219;-67
2022/07/28 13:40:46;;;;;;;3.17;2.28;;;;;;;34.51;26.72;97617.91;7616757;23;20213;-68
2022/07/28 13:43:48;;;;;;;3.58;2.60;;;;;;;34.02;27.02;97617.69;7616087;23;20212;-67
2022/07/28 13:46:52;;;;;;;2.40;2.20;;;;;;;33.27;28.23;97602.81;7615922;23;20667;-67
2022/07/28 13:49:56;;;;;;;4.03;2.53;;;;;;;33.57;28.25;97610.22;7617642;23;20672;-67
2022/07/28 13:52:58;;;;;;;2.50;2.30;;;;;;;33.12;28.44;97600.84;7616242;23;20667;-67
2022/07/28 13:56:00;;;;;;;3.97;2.78;;;;;;;33.09;28.23;97598.63;7614981;23;20549;-68
2022/07/28 13:59:02;;;;;;;2.90;2.60;;;;;;;33.35;28.38;97592.13;7620821;23;20208;-68
2022/07/28 14:02:08;;;;;;;2.70;2.50;;;;;;;33.59;27.42;97589.72;7616321;23;20677;-67
2022/07/28 14:05:16;;;;;;;3.45;2.42;;;;;;;33.96;27.60;97594.09;7591350;23;20267;-68
2022/07/28 14:08:19;;;;;;;2.55;2.17;;;;;;;33.86;28.06;97583.97;7615931;23;20255;-67
2022/07/28 14:11:26;;;;;;;3.08;2.78;;;;;;;33.15;29.67;97589.34;7589798;23;20220;-67
2022/07/28 14:14:29;;;;;;;2.60;2.40;;;;;;;32.58;30.79;97578.44;7616133;23;20218;-67
2022/07/28 14:17:31;;;;;;;5.68;2.60;;;;;;;32.72;30.94;97585.13;7616011;23;20214;-67
2022/07/28 14:20:46;;;;;;;3.47;2.70;;;;;;;32.23;31.66;97582.66;7543225;23;20234;-67
2022/07/28 14:23:49;;;;;;;2.92;2.60;;;;;;;34.17;29.30;97583.94;7543808;23;20218;-67
2022/07/28 14:26:51;;;;;;;4.40;2.33;;;;;;;37.41;23.30;97577.81;7540757;23;20681;-68
2022/07/28 14:29:54;;;;;;;2.88;2.13;;;;;;;39.78;21.23;97571.50;7543292;23;20228;-68
2022/07/28 14:32:56;;;;;;;2.28;2.08;;;;;;;41.53;19.43;97573.56;7541705;23;20209;-67
2022/07/28 14:35:58;;;;;;;2.75;2.20;;;;;;;42.60;17.46;97576.25;7543256;23;20210;-68